createdAt,value
2022-11-08T00:00:56.442Z,100920.37
2022-11-08T00:03:25.608Z,100914.59
2022-11-08T00:06:13.949Z,100903.57
2022-11-08T00:09:02.557Z,100912.93
2022-11-08T00:11:50.041Z,100904.78
2022-11-08T00:14:19.546Z,100900.36
2022-11-08T00:16:48.671Z,100889.14
2022-11-08T00:19:19.473Z,100891.50
2022-11-08T00:21:49.374Z,100889.29
2022-11-08T00:24:18.446Z,100890.45
2022-11-08T00:26:48.461Z,100882.59
2022-11-08T00:29:17.787Z,100890.33
2022-11-08T00:31:46.707Z,100900.34
2022-11-08T00:34:17.173Z,100884.84
2022-11-08T00:36:46.579Z,100876.00
2022-11-08T00:39:15.233Z,100874.79
2022-11-08T00:41:44.237Z,100869.45
2022-11-08T00:44:13.810Z,100877.39
2022-11-08T00:46:44.662Z,100872.61
2022-11-08T00:49:13.613Z,100868.69
2022-11-08T00:51:44.178Z,100863.91
2022-11-08T00:54:16.219Z,100863.55
2022-11-08T00:56:45.661Z,100858.48
2022-11-08T00:59:16.037Z,100860.49
2022-11-08T01:01:46.487Z,100859.42
2022-11-08T01:04:16.604Z,100847.86
2022-11-08T01:06:47.471Z,100826.16
2022-11-08T01:09:16.238Z,100841.70
2022-11-08T01:11:47.474Z,100836.57
2022-11-08T01:14:16.746Z,100830.08
2022-11-08T01:16:47.135Z,100829.23
2022-11-08T01:19:16.653Z,100840.23
2022-11-08T01:21:47.151Z,100847.16
2022-11-08T01:24:15.858Z,100857.51
2022-11-08T01:26:46.393Z,100857.51
2022-11-08T01:29:15.507Z,100854.95
2022-11-08T01:31:44.419Z,100858.87
2022-11-08T01:34:13.491Z,100858.36
2022-11-08T01:36:43.609Z,100856.00
2022-11-08T01:39:13.514Z,100860.08
2022-11-08T01:41:43.962Z,100845.00
2022-11-08T01:44:17.323Z,100847.06
2022-11-08T01:46:47.892Z,100838.08
2022-11-08T01:49:34.091Z,100836.22
2022-11-08T01:52:19.656Z,100836.72
2022-11-08T01:55:06.374Z,100822.86
2022-11-08T01:57:49.688Z,100820.34
2022-11-08T02:00:18.355Z,100814.06
2022-11-08T02:02:53.934Z,100830.84
2022-11-08T02:05:27.025Z,100826.78
2022-11-08T02:08:28.671Z,100825.56
2022-11-08T02:10:59.359Z,100834.21
2022-11-08T02:13:29.926Z,100827.42
2022-11-08T02:15:58.683Z,100831.84
2022-11-08T02:18:31.018Z,100839.78
2022-11-08T02:21:24.575Z,100842.64
2022-11-08T02:23:59.818Z,100850.94
2022-11-08T02:26:31.988Z,100859.07
2022-11-08T02:29:22.185Z,100858.72
2022-11-08T02:31:51.313Z,100847.16
2022-11-08T02:34:21.580Z,100841.52
2022-11-08T02:36:52.114Z,100847.30
2022-11-08T02:39:21.860Z,100833.59
2022-11-08T02:41:51.368Z,100841.58
2022-11-08T02:44:20.458Z,100846.01
2022-11-08T02:46:49.636Z,100846.72
2022-11-08T02:49:18.402Z,100841.29
2022-11-08T02:51:47.201Z,100835.51
2022-11-08T02:54:16.519Z,100833.50
2022-11-08T02:56:46.492Z,100829.78
2022-11-08T02:59:15.642Z,100832.00
2022-11-08T03:01:45.534Z,100826.06
2022-11-08T03:04:14.952Z,100823.50
2022-11-08T03:06:45.596Z,100824.16
2022-11-08T03:09:14.782Z,100828.93
2022-11-08T03:11:44.168Z,100828.13
2022-11-08T03:14:13.452Z,100821.00
2022-11-08T03:16:43.385Z,100824.41
2022-11-08T03:19:13.160Z,100832.80
2022-11-08T03:21:43.352Z,100831.29
2022-11-08T03:24:12.531Z,100830.94
2022-11-08T03:26:41.300Z,100826.86
2022-11-08T03:29:11.063Z,100835.86
2022-11-08T03:31:40.750Z,100830.28
2022-11-08T03:34:10.871Z,100827.06
2022-11-08T03:36:39.728Z,100831.84
2022-11-08T03:39:08.684Z,100829.63
2022-11-08T03:41:37.714Z,100836.77
2022-11-08T03:44:06.763Z,100826.92
2022-11-08T03:46:37.470Z,100832.91
2022-11-08T03:49:06.736Z,100835.77
2022-11-08T03:51:35.990Z,100836.33
2022-11-08T03:54:05.290Z,100831.75
2022-11-08T03:56:35.889Z,100840.60
2022-11-08T03:59:04.810Z,100837.03
2022-11-08T04:01:33.856Z,100831.25
2022-11-08T04:04:03.879Z,100828.53
2022-11-08T04:06:32.977Z,100830.09
2022-11-08T04:09:02.504Z,100828.59
2022-11-08T04:11:49.952Z,100825.72
2022-11-08T04:14:38.927Z,100823.52
2022-11-08T04:17:09.487Z,100824.88
2022-11-08T04:19:57.283Z,100830.30
2022-11-08T04:22:26.295Z,100831.45
2022-11-08T04:24:55.872Z,100831.30
2022-11-08T04:27:24.409Z,100836.02
2022-11-08T04:29:54.746Z,100835.83
2022-11-08T04:32:23.563Z,100831.09
2022-11-08T04:34:52.676Z,100823.11
2022-11-08T04:37:23.633Z,100826.32
2022-11-08T04:39:53.024Z,100824.61
2022-11-08T04:42:22.303Z,100830.05
2022-11-08T04:44:52.017Z,100826.83
2022-11-08T04:47:21.000Z,100832.10
2022-11-08T04:49:50.074Z,100830.09
2022-11-08T04:52:18.956Z,100838.53
2022-11-08T04:54:48.538Z,100837.33
2022-11-08T04:57:18.649Z,100835.32
2022-11-08T04:59:48.172Z,100832.81
2022-11-08T05:02:17.186Z,100825.88
2022-11-08T05:04:46.451Z,100837.38
2022-11-08T05:07:15.655Z,100836.17
2022-11-08T05:09:46.751Z,100836.17
2022-11-08T05:12:18.090Z,100834.82
2022-11-08T05:14:49.519Z,100838.03
2022-11-08T05:17:19.595Z,100845.62
2022-11-08T05:20:08.205Z,100851.20
2022-11-08T05:22:56.428Z,100852.34
2022-11-08T05:25:26.664Z,100856.06
2022-11-08T05:27:56.449Z,100854.00
2022-11-08T05:30:25.723Z,100849.93
2022-11-08T05:32:56.787Z,100851.44
2022-11-08T05:35:26.648Z,100851.29
2022-11-08T05:37:56.319Z,100856.72
2022-11-08T05:40:29.424Z,100858.08
2022-11-08T05:42:57.397Z,100852.55
2022-11-08T05:45:26.377Z,100862.55
2022-11-08T05:47:59.223Z,100859.69
2022-11-08T05:50:28.992Z,100855.71
2022-11-08T05:52:59.939Z,100853.05
2022-11-08T05:55:30.255Z,100851.05
2022-11-08T05:57:59.453Z,100851.41
2022-11-08T06:00:29.653Z,100859.25
2022-11-08T06:02:58.890Z,100867.23
2022-11-08T06:05:28.729Z,100869.66
2022-11-08T06:07:57.487Z,100863.93
2022-11-08T06:10:27.023Z,100871.27
2022-11-08T06:13:01.611Z,100882.48
2022-11-08T06:15:31.215Z,100877.05
2022-11-08T06:18:04.540Z,100870.22
2022-11-08T06:20:33.479Z,100861.06
2022-11-08T06:23:02.727Z,100857.70
2022-11-08T06:25:31.928Z,100854.69
2022-11-08T06:28:01.813Z,100856.39
2022-11-08T06:30:30.938Z,100853.69
2022-11-08T06:33:00.324Z,100856.25
2022-11-08T06:35:30.212Z,100840.16
2022-11-08T06:38:01.364Z,100841.88
2022-11-08T06:40:33.140Z,100849.02
2022-11-08T06:43:02.633Z,100848.01
2022-11-08T06:45:33.146Z,100850.42
2022-11-08T06:48:03.979Z,100856.86
2022-11-08T06:50:34.070Z,100860.27
2022-11-08T06:53:07.070Z,100858.77
2022-11-08T06:55:38.422Z,100865.91
2022-11-08T06:58:07.252Z,100858.47
2022-11-08T07:00:36.971Z,100855.60
2022-11-08T07:03:06.914Z,100850.02
2022-11-08T07:05:37.383Z,100847.80
2022-11-08T07:08:06.714Z,100848.86
2022-11-08T07:10:36.633Z,100849.21
2022-11-08T07:13:10.292Z,100852.12
2022-11-08T07:15:41.463Z,100854.54
2022-11-08T07:18:13.124Z,100847.45
2022-11-08T07:20:43.349Z,100855.80
2022-11-08T07:23:13.147Z,100857.59
2022-11-08T07:25:46.620Z,100862.72
2022-11-08T07:28:18.301Z,100857.67
2022-11-08T07:30:48.422Z,100864.88
2022-11-08T07:33:18.928Z,100864.21
2022-11-08T07:35:49.919Z,100861.69
2022-11-08T07:38:19.985Z,100864.10
2022-11-08T07:40:51.715Z,100862.94
2022-11-08T07:43:21.264Z,100863.84
2022-11-08T07:45:56.505Z,100865.75
2022-11-08T07:48:25.630Z,100862.38
2022-11-08T07:50:55.081Z,100864.43
2022-11-08T07:53:24.584Z,100864.94
2022-11-08T07:55:55.010Z,100864.43
2022-11-08T07:58:24.513Z,100860.00
2022-11-08T08:00:53.965Z,100869.91
2022-11-08T08:03:23.658Z,100871.97
2022-11-08T08:05:59.483Z,100873.83
2022-11-08T08:08:26.121Z,100859.77
2022-11-08T08:11:02.527Z,100860.63
2022-11-08T08:13:32.519Z,100854.02
2022-11-08T08:16:02.527Z,100851.70
2022-11-08T08:18:33.065Z,100852.20
2022-11-08T08:21:02.248Z,100850.84
2022-11-08T08:23:33.061Z,100852.74
2022-11-08T08:26:03.162Z,100844.63
2022-11-08T08:28:31.856Z,100852.22
2022-11-08T08:31:01.426Z,100854.28
2022-11-08T08:33:30.811Z,100859.05
2022-11-08T08:36:01.621Z,100857.53
2022-11-08T08:38:32.493Z,100863.87
2022-11-08T08:41:01.699Z,100861.34
2022-11-08T08:43:34.118Z,100863.05
2022-11-08T08:46:05.260Z,100854.92
2022-11-08T08:48:35.715Z,100855.46
2022-11-08T08:51:04.915Z,100861.44
2022-11-08T08:53:34.168Z,100856.16
2022-11-08T08:56:07.299Z,100854.45
2022-11-08T08:58:40.582Z,100857.86
2022-11-08T09:03:45.158Z,100848.34
2022-11-08T09:06:14.322Z,100850.62
2022-11-08T09:08:44.552Z,100855.77
2022-11-08T09:11:13.174Z,100859.00
2022-11-08T09:13:42.332Z,100852.55
2022-11-08T09:16:13.220Z,100854.25
2022-11-08T09:18:41.854Z,100853.72
2022-11-08T09:21:12.309Z,100856.59
2022-11-08T09:23:42.147Z,100851.19
2022-11-08T09:26:12.199Z,100851.38
2022-11-08T09:28:41.025Z,100852.92
2022-11-08T09:31:11.552Z,100847.31
2022-11-08T09:33:41.698Z,100852.95
2022-11-08T09:36:13.421Z,100844.46
2022-11-08T09:38:42.590Z,100847.72
2022-11-08T09:41:31.083Z,100850.63
2022-11-08T09:44:23.014Z,100851.38
2022-11-08T09:47:15.149Z,100853.64
2022-11-08T09:50:24.680Z,100847.39
2022-11-08T09:53:19.349Z,100848.45
2022-11-08T09:56:15.422Z,100849.50
2022-11-08T09:58:49.563Z,100847.67
2022-11-08T10:01:19.558Z,100840.72
2022-11-08T10:03:51.740Z,100840.05
2022-11-08T10:07:03.209Z,100837.01
2022-11-08T10:09:56.474Z,100837.53
2022-11-08T10:12:43.852Z,100834.64
2022-11-08T10:15:22.160Z,100833.63
2022-11-08T10:18:20.487Z,100831.62
2022-11-08T10:21:04.679Z,100833.00
2022-11-08T10:23:44.500Z,100828.24
2022-11-08T10:26:25.732Z,100829.28
2022-11-08T10:29:08.521Z,100824.86
2022-11-08T10:31:38.288Z,100837.82
2022-11-08T10:34:15.412Z,100830.50
2022-11-08T10:36:49.144Z,100835.45
2022-11-08T10:39:27.808Z,100834.27
2022-11-08T10:42:04.339Z,100833.77
2022-11-08T10:44:34.908Z,100831.73
2022-11-08T10:47:06.484Z,100828.50
2022-11-08T10:49:38.948Z,100830.05
2022-11-08T10:52:21.671Z,100830.77
2022-11-08T10:55:01.179Z,100833.15
2022-11-08T10:57:47.941Z,100830.08
2022-11-08T11:00:29.691Z,100832.98
2022-11-08T11:03:08.371Z,100836.73
2022-11-08T11:05:44.408Z,100840.66
2022-11-08T11:08:15.396Z,100835.72
2022-11-08T11:10:46.618Z,100829.91
2022-11-08T11:16:04.138Z,100839.80
2022-11-08T11:18:48.159Z,100831.95
2022-11-08T11:21:22.712Z,100831.09
2022-11-08T11:24:00.190Z,100833.33
2022-11-08T11:26:34.148Z,100838.78
2022-11-08T11:29:17.157Z,100837.76
2022-11-08T11:31:49.298Z,100843.05
2022-11-08T11:34:23.373Z,100846.31
2022-11-08T11:37:13.393Z,100847.33
2022-11-08T11:40:12.273Z,100848.17
2022-11-08T11:43:12.382Z,100846.11
2022-11-08T11:46:00.503Z,100845.59
2022-11-08T11:48:32.153Z,100848.65
2022-11-08T11:51:03.567Z,100845.74
2022-11-08T11:53:40.243Z,100851.37
2022-11-08T11:56:44.697Z,100853.75
2022-11-08T11:59:46.407Z,100854.59
2022-11-08T12:02:51.328Z,100849.11
2022-11-08T12:06:05.803Z,100847.05
2022-11-08T12:09:02.288Z,100849.78
2022-11-08T12:11:39.202Z,100846.87
2022-11-08T12:14:45.051Z,100851.66
2022-11-08T12:17:53.110Z,100858.64
2022-11-08T12:20:55.402Z,100862.05
2022-11-08T12:23:53.929Z,100862.04
2022-11-08T12:26:58.445Z,100862.22
2022-11-08T12:29:47.700Z,100850.59
2022-11-08T12:32:24.867Z,100853.14
2022-11-08T12:35:00.210Z,100851.94
2022-11-08T12:37:55.629Z,100858.59
2022-11-08T12:40:46.729Z,100858.27
2022-11-08T12:43:38.773Z,100858.59
2022-11-08T12:46:18.332Z,100862.19
2022-11-08T12:49:10.192Z,100860.81
2022-11-08T12:51:52.972Z,100867.98
2022-11-08T12:54:41.576Z,100867.14
2022-11-08T12:57:13.345Z,100861.33
2022-11-08T13:00:09.917Z,100863.21
2022-11-08T13:02:42.327Z,100858.09
2022-11-08T13:05:30.790Z,100862.19
2022-11-08T13:08:16.814Z,100864.41
2022-11-08T13:10:52.062Z,100863.89
2022-11-08T13:13:52.742Z,100864.22
2022-11-08T13:16:28.450Z,100859.78
2022-11-08T13:18:58.570Z,100859.63
2022-11-08T13:21:44.855Z,100857.92
2022-11-08T13:31:02.651Z,100876.05
2022-11-08T13:33:32.389Z,100874.69
2022-11-08T13:36:30.059Z,100882.37
2022-11-08T13:39:30.560Z,100887.32
2022-11-08T13:42:26.722Z,100885.95
2022-11-08T13:55:59.704Z,100884.92
2022-11-08T13:58:35.875Z,100889.91
2022-11-08T14:01:09.360Z,100893.66
2022-11-08T14:03:55.347Z,100893.15
2022-11-08T14:06:56.040Z,100891.95
2022-11-08T14:09:57.044Z,100889.73
2022-11-08T14:12:57.974Z,100889.91
2022-11-08T14:15:37.964Z,100881.89
2022-11-08T14:18:30.835Z,100886.68
2022-11-08T14:21:08.537Z,100882.92
2022-11-08T14:23:48.447Z,100886.17
2022-11-08T14:26:23.106Z,100886.34
2022-11-08T14:28:54.410Z,100895.06
2022-11-08T14:31:33.125Z,100895.23
2022-11-08T14:34:02.707Z,100897.80
2022-11-08T14:36:32.873Z,100891.48
2022-11-08T14:39:17.783Z,100887.39
2022-11-08T14:41:48.833Z,100885.52
2022-11-08T14:44:19.858Z,100893.21
2022-11-08T14:46:49.397Z,100895.09
2022-11-08T14:49:36.314Z,100894.23
2022-11-08T14:52:14.965Z,100890.99
2022-11-08T14:54:46.717Z,100884.67
2022-11-08T14:57:38.244Z,100892.53
2022-11-08T15:00:20.848Z,100886.39
2022-11-08T15:03:06.984Z,100890.66
2022-11-08T15:05:47.455Z,100894.76
2022-11-08T15:08:34.613Z,100893.91
2022-11-08T15:11:07.944Z,100899.70
2022-11-08T15:13:48.540Z,100898.00
2022-11-08T15:16:18.616Z,100900.40
2022-11-08T15:18:47.960Z,100896.47
2022-11-08T15:21:58.160Z,100898.02
2022-11-08T15:24:46.958Z,100899.89
2022-11-08T15:27:25.337Z,100898.88
2022-11-08T15:30:13.655Z,100896.48
2022-11-08T15:32:45.708Z,100907.75
2022-11-08T15:35:34.198Z,100906.20
2022-11-08T15:38:09.576Z,100907.23
2022-11-08T15:40:45.048Z,100909.27
2022-11-08T15:43:35.094Z,100902.61
2022-11-08T15:46:05.878Z,100907.22
2022-11-08T15:48:41.809Z,100910.81
2022-11-08T15:51:17.043Z,100919.18
2022-11-08T15:53:48.850Z,100923.79
2022-11-08T15:56:17.744Z,100920.20
2022-11-08T15:58:47.083Z,100929.25
2022-11-08T16:01:20.601Z,100926.02
2022-11-08T16:03:49.943Z,100923.62
2022-11-08T16:06:20.336Z,100924.81
2022-11-08T16:08:49.334Z,100918.50
2022-11-08T16:11:34.154Z,100915.59
2022-11-08T16:14:19.860Z,100914.56
2022-11-08T16:16:49.900Z,100923.27
2022-11-08T16:19:23.350Z,100925.67
2022-11-08T16:21:53.287Z,100926.70
2022-11-08T16:24:35.020Z,100930.80
2022-11-08T16:27:11.831Z,100929.42
2022-11-08T16:29:42.717Z,100932.84
2022-11-08T16:32:26.268Z,100929.43
2022-11-08T16:35:13.652Z,100932.50
2022-11-08T16:37:46.095Z,100926.36
2022-11-08T16:40:36.177Z,100924.31
2022-11-08T16:43:16.398Z,100933.53
2022-11-08T16:48:18.622Z,100932.52
2022-11-08T16:50:47.973Z,100940.02
2022-11-08T16:53:19.341Z,100934.88
2022-11-08T16:55:48.102Z,100937.43
2022-11-08T16:58:17.179Z,100935.04
2022-11-08T17:00:46.264Z,100934.84
2022-11-08T17:03:21.255Z,100935.52
2022-11-08T17:05:50.795Z,100942.52
2022-11-08T17:08:20.812Z,100951.89
2022-11-08T17:10:50.142Z,100945.58
2022-11-08T17:13:21.265Z,100950.34
2022-11-08T17:15:51.098Z,100949.14
2022-11-08T17:18:21.556Z,100944.36
2022-11-08T17:20:53.608Z,100944.86
2022-11-08T17:23:23.464Z,100939.75
2022-11-08T17:25:52.584Z,100943.66
2022-11-08T17:28:21.669Z,100946.99
2022-11-08T17:30:51.285Z,100940.14
2022-11-08T17:33:20.747Z,100955.62
2022-11-08T17:35:50.380Z,100956.09
2022-11-08T17:38:20.491Z,100956.08
2022-11-08T17:40:50.292Z,100958.28
2022-11-08T17:43:20.786Z,100960.47
2022-11-08T17:45:51.658Z,100957.73
2022-11-08T17:48:20.273Z,100961.11
2022-11-08T17:50:48.874Z,100958.69
2022-11-08T17:53:18.025Z,100958.45
2022-11-08T17:56:01.065Z,100962.33
2022-11-08T17:58:32.499Z,100960.25
2022-11-08T18:01:04.893Z,100964.66
2022-11-08T18:03:35.412Z,100960.89
2022-11-08T18:06:09.607Z,100955.77
2022-11-08T18:08:38.149Z,100960.36
2022-11-08T18:11:08.454Z,100961.05
2022-11-08T18:13:38.054Z,100961.88
2022-11-08T18:16:14.534Z,100964.92
2022-11-08T18:18:46.833Z,100964.73
2022-11-08T18:21:17.292Z,100960.45
2022-11-08T18:23:47.588Z,100959.41
2022-11-08T18:26:17.156Z,100961.28
2022-11-08T18:28:45.744Z,100964.17
2022-11-08T18:31:17.136Z,100965.18
2022-11-08T18:33:47.318Z,100960.41
2022-11-08T18:36:21.496Z,100965.50
2022-11-08T18:38:52.073Z,100978.42
2022-11-08T18:41:24.954Z,100973.32
2022-11-08T18:43:54.142Z,100972.81
2022-11-08T18:46:24.889Z,100981.17
2022-11-08T18:48:54.062Z,100977.41
2022-11-08T18:51:23.901Z,100985.89
2022-11-08T18:53:53.061Z,100990.26
2022-11-08T18:56:22.793Z,100996.11
2022-11-08T18:58:51.517Z,100985.50
2022-11-08T19:01:20.478Z,100993.82
2022-11-08T19:03:49.397Z,101007.43
2022-11-08T19:06:20.506Z,101009.10
2022-11-08T19:08:49.228Z,101008.25
2022-11-08T19:11:19.905Z,101010.42
2022-11-08T19:13:49.953Z,101010.42
2022-11-08T19:16:19.864Z,101007.20
2022-11-08T19:18:51.596Z,101008.72
2022-11-08T19:21:23.859Z,101014.27
2022-11-08T19:23:55.111Z,101014.39
2022-11-08T19:26:25.219Z,101016.41
2022-11-08T19:28:54.813Z,101017.57
2022-11-08T19:31:24.749Z,101023.87
2022-11-08T19:33:53.960Z,101017.42
2022-11-08T19:36:25.048Z,101023.87
2022-11-08T19:38:55.132Z,101018.54
2022-11-08T19:41:26.867Z,101023.08
2022-11-08T19:43:56.678Z,101025.75
2022-11-08T19:46:29.378Z,101023.34
2022-11-08T19:49:00.410Z,101024.86
2022-11-08T19:51:33.031Z,101032.81
2022-11-08T19:54:07.740Z,101034.83
2022-11-08T19:57:03.680Z,101034.63
2022-11-08T19:59:08.720Z,101039.06
2022-11-08T20:01:39.596Z,101037.41
2022-11-08T20:04:10.617Z,101044.00
2022-11-08T20:06:40.181Z,101049.52
2022-11-08T20:09:09.648Z,101048.58
2022-11-08T20:11:43.019Z,101051.95
2022-11-08T20:14:13.132Z,101050.19
2022-11-08T20:16:43.214Z,101054.72
2022-11-08T20:19:16.248Z,101059.59
2022-11-08T20:21:45.907Z,101054.45
2022-11-08T20:24:15.054Z,101051.39
2022-11-08T20:26:45.524Z,101050.68
2022-11-08T20:29:14.516Z,101050.17
2022-11-08T20:31:44.921Z,101055.62
2022-11-08T20:34:13.871Z,101058.19
2022-11-08T20:36:45.124Z,101049.17
2022-11-08T20:39:15.307Z,101056.12
2022-11-08T20:41:45.071Z,101052.14
2022-11-08T20:44:14.916Z,101053.59
2022-11-08T20:46:44.177Z,101049.61
2022-11-08T20:49:13.491Z,101049.25
2022-11-08T20:51:42.373Z,101054.33
2022-11-08T20:54:11.798Z,101057.91
2022-11-08T20:56:42.521Z,101048.55
2022-11-08T20:59:12.137Z,101049.70
2022-11-08T21:01:42.235Z,101051.20
2022-11-08T21:04:11.057Z,101052.51
2022-11-08T21:06:41.305Z,101052.66
2022-11-08T21:09:34.437Z,101055.23
2022-11-08T21:11:43.911Z,101060.45
2022-11-08T21:14:12.790Z,101053.95
2022-11-08T21:17:14.735Z,101053.25
2022-11-08T21:19:16.966Z,101059.33
2022-11-08T21:21:48.448Z,101061.69
2022-11-08T21:24:19.072Z,101058.77
2022-11-08T21:26:48.400Z,101060.89
2022-11-08T21:29:17.314Z,101059.32
2022-11-08T21:31:47.274Z,101065.84
2022-11-08T21:34:16.897Z,101066.63
2022-11-08T21:36:45.629Z,101072.92
2022-11-08T21:39:14.253Z,101065.48
2022-11-08T21:41:43.581Z,101069.91
2022-11-08T21:44:12.060Z,101069.70
2022-11-08T21:46:40.681Z,101070.14
2022-11-08T21:49:12.099Z,101072.30
2022-11-08T21:51:40.765Z,101064.58
2022-11-08T21:54:10.716Z,101065.38
2022-11-08T21:56:39.524Z,101074.23
2022-11-08T21:59:10.887Z,101061.66
2022-11-08T22:01:39.679Z,101063.87
2022-11-08T22:04:08.659Z,101070.16
2022-11-08T22:06:41.436Z,101063.02
2022-11-08T22:09:10.277Z,101064.30
2022-11-08T22:11:39.333Z,101070.31
2022-11-08T22:14:09.867Z,101071.89
2022-11-08T22:16:40.555Z,101063.47
2022-11-08T22:19:11.602Z,101062.39
2022-11-08T22:21:42.921Z,101071.67
2022-11-08T22:24:17.495Z,101071.32
2022-11-08T22:26:47.810Z,101068.93
2022-11-08T22:29:18.314Z,101070.58
2022-11-08T22:31:47.601Z,101070.93
2022-11-08T22:34:17.783Z,101078.35
2022-11-08T22:36:47.658Z,101075.28
2022-11-08T22:39:20.411Z,101081.71
2022-11-08T22:41:51.632Z,101082.06
2022-11-08T22:44:22.204Z,101078.50
2022-11-08T22:46:50.958Z,101080.21
2022-11-08T22:49:19.660Z,101072.22
2022-11-08T22:51:48.632Z,101072.50
2022-11-08T22:54:17.182Z,101071.86
2022-11-08T22:56:45.972Z,101078.64
2022-11-08T22:59:14.694Z,101082.49
2022-11-08T23:01:43.251Z,101085.63
2022-11-08T23:04:12.042Z,101085.91
2022-11-08T23:06:42.401Z,101090.77
2022-11-08T23:09:11.206Z,101093.75
2022-11-08T23:11:58.201Z,101088.33
2022-11-08T23:14:45.157Z,101095.61
2022-11-08T23:17:14.183Z,101094.25
2022-11-08T23:20:01.392Z,101092.67
2022-11-08T23:22:51.821Z,101087.39
2022-11-08T23:25:20.803Z,101089.75
2022-11-08T23:28:09.652Z,101093.31
2022-11-08T23:30:58.774Z,101094.53
2022-11-08T23:33:27.162Z,101096.61
2022-11-08T23:36:11.126Z,101094.25
2022-11-08T23:38:41.274Z,101092.10
2022-11-08T23:41:29.044Z,101095.73
2022-11-08T23:44:18.346Z,101091.94
2022-11-08T23:46:47.312Z,101090.59
2022-11-08T23:49:16.143Z,101089.59
2022-11-08T23:51:45.240Z,101082.17
2022-11-08T23:54:15.346Z,101085.02
2022-11-08T23:56:44.695Z,101091.30
2022-11-08T23:59:15.670Z,101089.31
